x

9444090 - Port Angeles, Wa (ptaw1) Weather Station

8:30 - Sun 23rd Nov 2014 All times are PST. -8 hours from GMT.

  • Wind
    7mph, 9mph gusts
  • Sea Temp 49°f
  • Luft Temp 46°f
  • Sea Pressure 1024.6mb
  • 9444090 - Port Angeles, Wa
  • 9444090 - Port Angeles, Wa

More Historic Weather Station data

Upgrade to MSW Pro to gain access to the past 30 days of data for over 8000 Wavebouys and Weather Stations around the globe.

Join Pro

Comparision Forecast

View Surf forecast
   
So 11/23 8:30 7 9 mph 1024.6mb 49f 46f
8:24 6 9 mph 1024.6mb 49f 47f
8:18 7 8 mph 1024.7mb 49f 47f
8:12 6 7 mph 1024.7mb 49f 46f
8:06 5 6 mph 1024.6mb 49f 46f
8:00 5 8 mph 1024.5mb 49f 49f
7:36 7 14 mph 1024.3mb 49f 49f
7:30 9 16 mph 1024.3mb 49f 50f
7:24 8 14 mph 1024.3mb 49f 50f
7:18 9 14 mph 1024.2mb 49f 50f
7:12 8 13 mph 1024.2mb 49f 50f
7:06 10 14 mph 1024.2mb 49f 50f
7:00 9 15 mph 1024.2mb 49f 50f
6:36 6 9 mph 1024.2mb 49f 50f
6:30 6 9 mph 1024.2mb 49f 50f
6:24 7 10 mph 1024.2mb 49f 51f
6:18 7 11 mph 1024.1mb 49f 51f
6:12 6 10 mph 1024mb 49f 50f
6:06 7 11 mph 1024mb 49f 51f
6:00 6 11 mph 1023.9mb 49f 50f
5:36 8 18 mph 1023.2mb 49f 51f
5:30 9 17 mph 1023mb 49f 51f
5:24 10 17 mph 1023mb 49f 51f
5:18 11 18 mph 1022.8mb 49f 51f
5:12 9 20 mph 1022.7mb 49f 51f
5:06 9 15 mph 1022.6mb 49f 51f
5:00 7 15 mph 1022.3mb 49f 51f
4:36 8 14 mph 1022.2mb 49f 51f
4:30 10 14 mph 1022.3mb 49f 51f
4:24 7 13 mph 1022.1mb 49f 51f
4:18 8 13 mph 1022.1mb 49f 51f
4:12 8 14 mph 1022.1mb 49f 50f
4:06 8 10 mph 1022.2mb 49f 51f
4:00 7 14 mph 1022mb 49f 51f
3:36 8 16 mph 1021.8mb 49f 52f
3:30 10 15 mph 1021.7mb 49f 52f
3:24 11 21 mph 1021.7mb 49f 52f
3:18 10 15 mph 1021.6mb 49f 52f
3:12 10 16 mph 1021.4mb 49f 52f
3:06 14 18 mph 1021.4mb 49f 52f
3:00 13 17 mph 1021.3mb 49f 53f
2:36 9 17 mph 1020.9mb 49f 53f
2:30 15 18 mph 1020.9mb 49f 53f
2:24 15 20 mph 1020.9mb 49f 53f
2:18 13 21 mph 1020.9mb 49f 53f
2:12 17 23 mph 1020.9mb 49f 53f
2:06 15 21 mph 1021mb 49f 53f
2:00 13 20 mph 1021mb 49f 52f
1:36 14 18 mph 1020.7mb 49f 51f
1:30 16 21 mph 1020.7mb 49f 51f
1:24 18 21 mph 1020.6mb 49f 50f
1:18 18 22 mph 1020.6mb 49f 50f
1:12 20 25 mph 1020.5mb 49f 50f
1:06 21 29 mph 1020.3mb 49f 50f
1:00 21 26 mph 1020.3mb 49f 49f
12:36 14 20 mph 1019.9mb 49f 51f
12:30 11 18 mph 1020mb 49f 52f
12:24 11 22 mph 1019.9mb 49f 51f
12:18 10 17 mph 1019.9mb 49f 51f
12:12 6 14 mph 1020mb 49f 50f
12:06 7 14 mph 1019.9mb 49f 50f
12:00 7 15 mph 1019.9mb 49f 49f
11:36 8 14 mph 1019.6mb 49f 50f
11:30 11 20 mph 1019.6mb 49f 50f
11:24 8 17 mph 1019.5mb 49f 50f
11:18 10 18 mph 1019.5mb 49f 50f
11:12 11 22 mph 1019.5mb 49f 51f
11:06 13 24 mph 1019.4mb 49f 51f
11:00 11 21 mph 1019.4mb 49f 52f
10:36 11 15 mph 1018.9mb 49f 52f
10:30 13 18 mph 1018.8mb 49f 52f
10:24 7 13 mph 1018.8mb 49f 51f
10:18 5 13 mph 1018.7mb 49f 51f
10:12 9 16 mph 1018.6mb 49f 51f
10:06 8 13 mph 1018.4mb 49f 50f
10:00 7 15 mph 1018.3mb 49f 50f
9:36 9 18 mph 1018.5mb 49f 48f
9:30 11 22 mph 1018.5mb 49f 48f
9:24 14 28 mph 1018.1mb 49f 49f
9:18 16 29 mph 1018mb 49f 50f
9:12 9 15 mph 1017.7mb 49f 51f
9:06 7 10 mph 1017.4mb 49f 51f
9:00 6 13 mph 1017.3mb 49f 51f
8:36 7 13 mph 1017mb 49f 50f
8:30 6 10 mph - - -
8:24 5 11 mph 1016.8mb 49f 49f
8:18 6 11 mph 1016.8mb 49f 48f
8:12 6 10 mph 1016.9mb 49f 49f
8:06 6 11 mph 1016.8mb 49f 48f
8:00 6 9 mph 1016.9mb 49f 47f
7:36 2 3 mph 1016.7mb 49f 45f
7:30 2 6 mph 1016.6mb 49f 45f
7:24 2 5 mph 1016.5mb 49f 45f
7:18 6
mph
1016.6mb 49f 46f
7:12 3 6 mph 1016.6mb 49f 46f
7:06 5 7 mph 1016.6mb 49f 46f
7:00 5 8 mph 1016.6mb 49f 46f
6:36 6 9 mph 1016.2mb 49f 46f
6:30 2 3 mph 1015.8mb 49f 46f
6:24 3 5 mph 1015.6mb 49f 46f
6:18 3 5 mph 1015.4mb 49f 46f
6:12 2 3 mph 1015.4mb 49f 46f
6:06 3
mph
1015.5mb 49f 46f
6:00 3 6 mph 1015.7mb 49f 46f
5:36 7 9 mph 1016.1mb 49f 46f
5:30 8 10 mph 1016.2mb 49f 46f
5:24 6 8 mph 1016.6mb 49f 46f
5:18 6 9 mph 1016.8mb 49f 47f
5:12 5 10 mph 1016.6mb 49f 47f
5:06 8 11 mph 1016.7mb 49f 47f
5:00 7 10 mph 1016.6mb 49f 48f
4:36 6 11 mph 1016.4mb 49f 46f
4:30 3 10 mph 1016.1mb 49f 46f
4:24 6 7 mph 1015.9mb 49f 46f
4:18 3 7 mph 1015.9mb 49f 46f
4:12 3 7 mph 1016.1mb 49f 45f
4:06 7 8 mph 1016.1mb 49f 45f
4:00 3 6 mph 1016.2mb 49f 46f
3:36 7 9 mph 1016.5mb 49f 46f
3:30 6 7 mph 1017mb 49f 46f
3:24 8 10 mph 1016.9mb 49f 47f
3:18 7 9 mph 1017.2mb 49f 45f
3:12 6 7 mph 1017.2mb 49f 46f
3:06 6 8 mph 1017.5mb 49f 46f
3:00 5 6 mph 1017.9mb 49f 45f
2:36 2 5 mph 1018.7mb 49f 45f
2:30 3 6 mph 1018.8mb 49f 45f
2:24 5 6 mph 1018.7mb 49f 46f
2:18 5 7 mph 1018.6mb 49f 45f
2:12 3 6 mph 1019mb 49f 45f
2:06 3 7 mph 1019.1mb 49f 45f
2:00 6 7 mph 1019.3mb 49f 45f
1:36 7 11 mph 1019mb 49f 46f
1:30 8 9 mph 1019mb 49f 45f
1:24 7 10 mph 1019mb 49f 45f
1:18 7 10 mph 1018.9mb 49f 44f
1:12 7 10 mph 1018.9mb 49f 45f
1:06 5 7 mph 1018.9mb 49f 44f
1:00 5 7 mph 1019mb 49f 44f
12:36 6 7 mph 1019.1mb 49f 44f
12:30 6 8 mph 1018.9mb 49f 45f
12:24 6 7 mph 1018.8mb 49f 44f
12:18 2 5 mph 1018.8mb 49f 45f
12:12 5 7 mph 1018.9mb 49f 44f
12:06 7 9 mph 1018.7mb 49f 44f
12:00 2 6 mph 1018.7mb 49f 44f
Sa 11/22 11:36 1 3 mph 1018.6mb 49f 44f
11:30 3 5 mph 1018.5mb 49f 44f
11:24 3 6 mph 1018.4mb 49f 44f
11:18 6 7 mph 1018.3mb 49f 44f
11:12 3
mph
1018.4mb 49f 44f
11:06 2 3 mph 1018.5mb 49f 44f
11:00 2 3 mph 1018.5mb 49f 44f
10:36 3 7 mph 1018.4mb 49f 44f
10:30 7 8 mph 1018.2mb 49f 44f
10:24 5 9 mph 1018.4mb 49f 44f
10:18 5 6 mph 1018.4mb 49f 44f
10:12 5 7 mph 1018.4mb 49f 45f
10:06 5 7 mph 1018.5mb 49f 46f
10:00 5 7 mph 1018.3mb 49f 45f
9:36 7 8 mph 1018mb 49f 45f
9:30 6
mph
1017.8mb 49f 45f
9:24 3 5 mph 1017.9mb 49f 45f
9:18 3 6 mph 1017.7mb 49f 45f
9:12 5 6 mph 1017.6mb 49f 45f
9:06 5
mph
1017.5mb 49f 45f
9:00 5 7 mph 1017.2mb 49f 45f
8:54 3 7 mph 1017.3mb 49f 45f
8:48 2 5 mph 1017.3mb 49f 46f
8:36 7 10 mph 1016.9mb 49f 46f
8:30 8 11 mph 1016.8mb 49f 46f
8:24 7 9 mph 1016.7mb 49f 46f
8:18 6 9 mph 1016.6mb 49f 46f
8:12 7 9 mph 1016.5mb 49f 46f
8:06 10 13 mph 1016.4mb 49f 46f
8:00 6 9 mph 1016.5mb 49f 46f
7:54 8 11 mph 1016.5mb 49f 46f
7:48 6 8 mph 1016.4mb 49f 46f
7:36 6 9 mph 1016.3mb 49f 46f
7:30 7 9 mph 1016.4mb 49f 46f
7:24 7 10 mph 1016.4mb 49f 46f
7:18 6 8 mph 1016.4mb 49f 46f
7:12 5 8 mph 1016.4mb 49f 47f
7:06 6 14 mph 1016.5mb 49f 49f
7:00 6 10 mph 1016.5mb 49f 48f
6:54 6 10 mph 1016.4mb 49f 48f
6:48 6 11 mph 1016.3mb 49f 48f
6:36 6 9 mph 1016.1mb 49f 47f
6:30 5 7 mph 1016.1mb 49f 47f
6:24 5 10 mph 1015.9mb 49f 47f
6:18 7 11 mph 1016mb 49f 47f
6:12 7 15 mph 1016.1mb 49f 47f
6:06 8 11 mph 1016mb 49f 48f
6:00 8 17 mph 1015.9mb 50f 48f
5:54 10 20 mph 1015.8mb 50f 49f
5:48 13 16 mph 1015.4mb 50f 50f
5:36 8 13 mph 1015.1mb 50f 50f
5:30 9 13 mph 1015mb 50f 50f
5:24 8 15 mph 1015mb 50f 50f
5:18 9 14 mph 1014.9mb 50f 50f
5:12 9 16 mph 1014.8mb 50f 49f
5:06 9 14 mph 1014.7mb 49f 49f
5:00 11 15 mph 1014.7mb 49f 49f
4:54 9 11 mph 1014.5mb 49f 50f
4:48 8 14 mph 1014.4mb 49f 50f
4:36 8 13 mph 1014.2mb 49f 50f
4:30 7 14 mph 1014.2mb 49f 50f
4:24 8 14 mph 1014.1mb 49f 50f
4:18 11 16 mph 1014mb 49f 50f
4:12 11 13 mph 1013.9mb 50f 50f
4:06 9 14 mph 1013.8mb 49f 50f
4:00 10 13 mph 1013.7mb 49f 51f
3:54 8 15 mph 1013.6mb 49f 51f
3:48 11 17 mph 1013.5mb 49f 51f
3:36 11 16 mph 1013.3mb 49f 51f
3:30 10 15 mph 1013.1mb 49f 51f
3:24 11 17 mph 1013mb 49f 51f
3:18 9 13 mph 1013mb 49f 52f
3:12 9 15 mph 1012.9mb 49f 52f
3:06 7 13 mph 1012.7mb 49f 52f
3:00 8 14 mph 1012.5mb 49f 52f
2:54 9 16 mph 1012.4mb 49f 52f
2:48 8 13 mph 1012.3mb 49f 53f
2:36 7 14 mph 1012.1mb 49f 53f
2:30 10 18 mph 1012mb 49f 53f
2:24 13 17 mph 1011.9mb 49f 53f
2:18 11 22 mph 1011.8mb 49f 53f
2:12 11 23 mph 1011.7mb 49f 53f
2:06 10 17 mph 1011.6mb 49f 53f
2:00 13 21 mph 1011.5mb 49f 53f
1:54 13 20 mph 1011.3mb 49f 53f
1:48 10 18 mph 1011.3mb 49f 53f
1:36 11 24 mph 1011mb 49f 53f
1:30 16 22 mph 1010.8mb 49f 53f
1:24 13 23 mph 1010.7mb 49f 53f
1:18 14 22 mph 1010.5mb 49f 53f
1:12 15 24 mph 1010.4mb 49f 53f
1:06 13 22 mph 1010.2mb 49f 53f
1:00 9 20 mph 1010.1mb 49f 53f
12:54 13 25 mph 1010mb 49f 53f
12:48 8 24 mph 1009.9mb 49f 53f
12:36 9 14 mph 1009.6mb 49f 52f
12:30 8 14 mph 1009.6mb 49f 52f
12:24 11 16 mph 1009.5mb 49f 52f
12:18 10 14 mph 1009.4mb 49f 52f
12:12 11 15 mph 1009.3mb 49f 51f
12:06 11 14 mph 1009.2mb 49f 50f
12:00 8 10 mph 1009.2mb 50f 50f
11:54 7 9 mph 1009.1mb 50f 49f
11:48 7 9 mph 1009.1mb 50f 49f
11:36 8 9 mph 1009mb 50f 48f
11:30 8 13 mph 1008.9mb 50f 48f
11:24 9 13 mph 1008.8mb 50f 49f
11:18 8 10 mph 1008.7mb 50f 49f
11:12 8 14 mph 1008.6mb 50f 49f
11:06 11 22 mph 1008.5mb 50f 49f
11:00 16 22 mph - - -
10:54 14 17 mph 1008.2mb 50f 49f
10:48 10 14 mph 1007.9mb 50f 50f
10:36 8 14 mph 1007.6mb 50f 50f
10:30 5 8 mph 1007.5mb 50f 49f
10:24 2 3 mph 1007.4mb 50f 48f
10:18 3 5 mph 1007.3mb 50f 47f
10:12 2 6 mph 1007.2mb 50f 46f
10:06 3 5 mph 1007.1mb 50f 46f
10:00 2 5 mph 1007mb 50f 46f
9:54 2 5 mph 1006.9mb 50f 45f
9:48 3 6 mph 1006.8mb 50f 45f
9:36 3 7 mph 1006.7mb 50f 45f
9:30 3 6 mph 1006.5mb 50f 44f
9:24 3 6 mph 1006.5mb 50f 44f
9:18 5 6 mph 1006.4mb 50f 44f
9:12 3 5 mph 1006.3mb 50f 44f
9:06 5 6 mph 1006.3mb 50f 44f
9:00 1 3 mph 1006.2mb 50f 45f
8:54 1 2 mph 1006.2mb 50f 44f
8:48 2 3 mph 1005.9mb 50f 44f
8:36 1 3 mph 1005.7mb 50f 44f
8:30 2 3 mph 1005.7mb 50f 44f
8:24 3 6 mph 1005.8mb 50f 45f
8:18 6 9 mph 1005.8mb 50f 44f
8:12 6 8 mph 1005.5mb 50f 44f
8:06 6 10 mph 1005.5mb 50f 45f
8:00 7 10 mph 1005.6mb 50f 45f
7:54 6 9 mph 1005.4mb 50f 44f
7:48 7 9 mph 1005.2mb 50f 45f
7:36 2 6 mph 1005mb 50f 46f
7:30 3 13 mph 1004.9mb 50f 45f
7:24 7 13 mph 1004.8mb 50f 43f
7:18 7 9 mph 1004.5mb 50f 42f
7:12 8 9 mph 1004.3mb 50f 42f
7:06 7 9 mph 1004.2mb 50f 42f
7:00 6 9 mph 1004.1mb 50f 42f
6:54 6 8 mph 1004.1mb 50f 42f
6:48 3 6 mph 1004mb 50f 42f
6:36 3 5 mph 1004.1mb 50f 43f
6:30 3 5 mph 1003.9mb 50f 44f
6:24 3 5 mph 1003.9mb 50f 45f
6:18 3 6 mph 1003.9mb 50f 45f
6:12 5 6 mph 1003.9mb 50f 44f
6:06 5 8 mph 1003.8mb 50f 44f
6:00 5 7 mph 1003.7mb 50f 44f
5:54 2 6 mph 1003.8mb 50f 44f
5:48 6 9 mph 1003.8mb 50f 44f
5:36 5 10 mph 1003.7mb 50f 44f
5:30 6 8 mph 1003.6mb 50f 44f
5:24 7 9 mph 1003.6mb 50f 44f
5:18 7 9 mph 1003.5mb 50f 44f
5:12 7 8 mph 1003.4mb 50f 44f
5:06 6 8 mph 1003.3mb 50f 44f
5:00 6 8 mph 1003.3mb 50f 44f
4:54 6 9 mph 1003.2mb 50f 44f
4:48 6 8 mph 1003.1mb 50f 45f
4:36 3 7 mph 1002.8mb 50f 45f
4:30 6 9 mph 1003mb 50f 45f
4:24 6 10 mph 1003.1mb 50f 46f
4:18 7 10 mph 1003.2mb 50f 47f
4:12 9 13 mph 1003.3mb 50f 47f
4:06 9 13 mph 1003.2mb 50f 48f
4:00 9 11 mph 1003mb 50f 49f
3:54 8 11 mph 1002.8mb 50f 49f
3:48 6 9 mph 1002.6mb 50f 48f
3:36 7 9 mph 1002.3mb 50f 47f
3:30 6 9 mph 1002.1mb 50f 47f
3:24 7 10 mph 1001.9mb 50f 47f
3:18 8 11 mph 1001.9mb 50f 47f
3:12 6 9 mph 1001.8mb 50f 47f
3:06 7 11 mph 1001.8mb 50f 47f
3:00 8 13 mph 1001.7mb 50f 47f
2:54 10 14 mph 1001.7mb 50f 47f
2:48 10 15 mph 1001.5mb 50f 47f
2:36 17 25 mph 1001.6mb 50f 47f
2:30 21 26 mph 1001.7mb 50f 48f
2:24 16 20 mph 1001.6mb 50f 49f
2:18 10 13 mph 1001.3mb 50f 48f
2:12 7 15 mph 1001.1mb 50f 48f
2:06 6 9 mph 1000.9mb 50f 48f
2:00 6 11 mph 1000.8mb 50f 48f
1:54 6 11 mph 1000.7mb 50f 48f
1:48 10 16 mph 1000.7mb 50f 48f
1:36 13 16 mph 1000.6mb 50f 49f
1:30 10 15 mph 1000.5mb 50f 50f
1:24 8 22 mph 1000.3mb 50f 49f
1:18 8 17 mph 1000.2mb 50f 49f
1:12 14 17 mph 1000.2mb 50f 49f
1:06 8 14 mph 1000.2mb 50f 48f
1:00 9 13 mph 1000mb 50f 49f
12:54 10 16 mph 999.9mb 50f 49f
12:48 10 17 mph 999.9mb 50f 49f
12:36 11 17 mph 999.8mb 50f 50f
12:30 10 15 mph 999.7mb 50f 50f
12:24 9 16 mph 999.5mb 50f 50f
12:18 8 18 mph 999.4mb 50f 50f
12:12 9 20 mph 999.2mb 50f 49f
12:06 10 16 mph 999.2mb 50f 50f
12:00 7 16 mph 999.1mb 50f 49f
Fr 11/21 11:54 8 18 mph 999mb 50f 49f
11:48 10 17 mph 998.9mb 50f 50f
11:36 9 14 mph 998.5mb 50f 50f
11:30 9 21 mph - - -
11:24 8 13 mph 998.1mb 50f 49f
11:18 6 15 mph 997.9mb 50f 49f
11:12 9 20 mph 997.7mb 50f 49f
11:06 9 16 mph 997.5mb 50f 50f
11:00 6 16 mph 997.5mb 50f 50f
10:54 9 15 mph 997.3mb 50f 50f
10:48 11 20 mph 997.1mb 50f 50f
10:36 11 15 mph 996.7mb 50f 50f
10:30 8 16 mph 996.5mb 50f 49f
10:24 8 14 mph 996.4mb 50f 49f
10:18 6 11 mph 996.2mb 50f 50f
10:12 9 16 mph 996.1mb 50f 50f
10:06 9 16 mph 995.9mb 50f 50f
10:00 10 21 mph 995.8mb 50f 50f
9:54 8 15 mph 995.7mb 50f 50f
9:48 10 17 mph 995.5mb 50f 50f
9:36 8 13 mph 995.3mb 50f 49f
9:30 8 11 mph 995.2mb 50f 49f
9:24 9 14 mph 995mb 50f 50f
9:18 10 15 mph 994.9mb 50f 50f
9:12 13 16 mph 994.6mb 50f 50f
9:06 7 21 mph 994.4mb 50f 50f
9:00 14 24 mph 994.2mb 50f 50f
8:54 7 16 mph 994.3mb 50f 51f
8:48 13 22 mph 994.3mb 50f 51f
8:36 11 18 mph 994.1mb 50f 51f
8:30 9 18 mph 994mb 50f 51f
8:24 9 21 mph 993.8mb 50f 52f
8:18 11 26 mph 993.6mb 50f 51f
8:12 17 28 mph 993.6mb 50f 51f
8:06 18 26 mph 993.4mb 50f 51f
8:00 21 30 mph 993.2mb 50f 51f
7:54 24 33 mph 992.9mb 50f 51f
7:48 16 23 mph 992.9mb 50f 52f
7:36 16 23 mph 992.5mb 50f 52f
7:30 14 21 mph 992.4mb 50f 51f
7:24 14 23 mph 992.4mb 50f 51f
7:18 13 21 mph 992.3mb 50f 51f
7:12 14 18 mph 992.2mb 50f 52f
7:06 13 17 mph 991.9mb 50f 51f
7:00 9 14 mph 991.6mb 50f 52f
6:54 9 13 mph 991.5mb 50f 51f
6:48 11 16 mph 991.4mb 50f 51f
6:36 9 14 mph 991.3mb 50f 51f
6:30 9 14 mph 991.4mb 50f 51f
6:24 8 13 mph 991.4mb 50f 51f
6:18 7 13 mph 991.4mb 50f 51f
6:12 10 17 mph 991.5mb 50f 51f
6:06 14 21 mph 991.4mb 50f 51f
6:00 11 18 mph 991.3mb 50f 50f
5:54 3 10 mph 990.4mb 50f 49f
5:48 6 8 mph 990.1mb 50f 49f
5:36 3 6 mph 989.8mb 50f 49f
5:30  -  8 mph 990.3mb 50f 50f
5:24 1 5 mph 990.6mb 50f 50f
5:18 3 6 mph 990.7mb 50f 49f
5:12 7 10 mph 990.6mb 50f 49f
5:06 9 13 mph 990.7mb 50f 49f
5:00 6 11 mph 990.6mb 50f 49f
4:54 5 13 mph 990.4mb 50f 49f
4:48 8 14 mph 990.6mb 50f 49f
4:36 8 14 mph 990.8mb 50f 49f
4:30 6 9 mph 990.5mb 50f 49f
4:24 6 10 mph 990.6mb 50f 48f
4:18 7 9 mph 990.3mb 50f 49f
4:12 5 9 mph 990.5mb 50f 48f
4:06 3 6 mph 990.1mb 50f 48f
4:00 3 6 mph 989.6mb 50f 48f
3:54 6 11 mph 990mb 50f 48f
3:48 5 8 mph 989.5mb 50f 48f
3:36 6 9 mph 990.1mb 50f 48f
3:30 5 8 mph 990.2mb 50f 48f
3:24 7 9 mph 990.4mb 50f 48f
3:18 6 7 mph 990.5mb 50f 48f
3:12 3 6 mph 990.5mb 50f 48f
3:06 2 5 mph 990.6mb 50f 48f
3:00 1 5 mph 990.9mb 50f 48f
2:54  -  2 mph 991.2mb 50f 48f
2:48 2 6 mph 991.1mb 50f 48f
2:36 5 10 mph 991.3mb 50f 48f
2:30 3 7 mph 991.3mb 50f 48f
2:24 5 8 mph 991.4mb 50f 48f
2:18 7 9 mph 992.1mb 50f 47f
2:12 3 7 mph 992.4mb 50f 47f
2:06 3 8 mph 992.6mb 50f 48f
2:00 5 6 mph 992.8mb 50f 48f
1:54 2 5 mph 993.2mb 50f 48f
1:48 5 10 mph 993.4mb 50f 48f
1:36 3 5 mph 994.1mb 50f 48f
1:30 5 6 mph 994.4mb 50f 48f
1:24 2 3 mph 994.7mb 50f 48f
1:18 2 6 mph 994.6mb 50f 48f
1:12 3 5 mph 994.8mb 50f 47f
1:06 2 3 mph 995.1mb 50f 47f
1:00 2 3 mph 996.1mb 50f 47f
12:54 1 3 mph 996.2mb 50f 47f
12:48 2 5 mph 996.5mb 50f 47f
12:36 3 6 mph 996.9mb 50f 47f
12:30 3 6 mph 997.1mb 50f 47f
12:24 2 6 mph 997.3mb 50f 47f
12:18  -  3 mph 997.6mb 50f 47f
12:12 3 5 mph 997.9mb 50f 47f
12:06 3
mph
998.1mb 50f 47f
12:00 2 3 mph 998.3mb 50f 47f
11:54 2 7 mph 998.5mb 50f 47f
11:48 3 7 mph 998.7mb 50f 47f
11:36 3 5 mph 999.1mb 50f 47f
11:30 1 2 mph - - -
11:24 2
mph
999.6mb 50f 47f
11:18 1 3 mph 999.6mb 50f 47f
11:12  -  3 mph 999.9mb 50f 47f
11:06 2 5 mph 1000mb 50f 47f
11:00 3 5 mph 1000.2mb 50f 47f
10:54 1 2 mph 1000.3mb 50f 47f
10:48 1 3 mph 1000.4mb 50f 47f
10:36 2 3 mph 1000.9mb 50f 47f
10:30 2 3 mph 1000.9mb 50f 46f
10:24 2 3 mph 1001mb 50f 46f
10:18  -  2 mph 1000.8mb 50f 46f
10:12 2
mph
1001.1mb 50f 46f
10:06 1 2 mph 1001.3mb 50f 46f
10:00 2 3 mph 1001.5mb 50f 46f
9:54 1 3 mph 1001.7mb 50f 46f
9:48 3 5 mph 1001.9mb 50f 46f
9:36 1 5 mph 1001.9mb 49f 46f
9:30 2 3 mph 1002.1mb 49f 45f
9:24 3 7 mph 1002.2mb 49f 45f
9:18 5 6 mph 1002.4mb 49f 45f
9:12 3 6 mph 1002.5mb 49f 45f
9:06 2 5 mph 1002.6mb 49f 45f
9:00 5 6 mph 1002.8mb 49f 45f
8:36 2 5 mph 1003.3mb 49f 45f
8:30 3
mph
1003.4mb 49f 44f
8:24 2 3 mph 1003.3mb 49f 44f
8:18 3
mph
1003.4mb 49f 44f
8:12 3 5 mph 1003.5mb 49f 45f
8:06 1 5 mph 1003.7mb 49f 44f
8:00 3 5 mph 1003.8mb 49f 44f
7:54 2 6 mph 1003.9mb 49f 45f
7:48 2 7 mph 1004mb 49f 45f
7:36 3 5 mph 1004.1mb 50f 44f
7:30 3 5 mph 1004.4mb 50f 44f
7:24 3
mph
1004.5mb 50f 44f
7:18 2 7 mph 1004.7mb 49f 44f
7:12 1 5 mph 1004.9mb 49f 44f
7:06 2 5 mph 1004.9mb 50f 44f
7:00 1 2 mph 1004.9mb 50f 44f
6:54 1 3 mph 1004.9mb 50f 44f
6:48 2 5 mph 1004.8mb 50f 44f
6:36 2 3 mph 1004.8mb 50f 44f
6:30 2
mph
1005.2mb 50f 44f
6:24 3 5 mph 1005.5mb 50f 44f
6:18 2 3 mph 1005.7mb 50f 44f
6:12 1 5 mph 1006mb 50f 44f
6:06 2 5 mph 1006.1mb 50f 44f
6:00 5
mph
1006.1mb 50f 44f
5:54 6
mph
1006mb 50f 44f
5:48 6
mph
1006mb 50f 44f
5:36 2 5 mph 1006.1mb 50f 44f
5:30 3 5 mph 1006.4mb 50f 44f
5:24 5 6 mph 1006.5mb 50f 44f
5:18 5 6 mph 1006.7mb 50f 44f
5:12 3 7 mph 1006.7mb 50f 44f
5:06 2 5 mph 1006.8mb 50f 44f
5:00 3 5 mph 1007.1mb 50f 44f
4:54 5 6 mph 1007.3mb 50f 44f
4:48 2 5 mph 1007.4mb 50f 44f
4:36 5 6 mph 1007.6mb 50f 44f
4:30 2 3 mph 1007.7mb 50f 44f
4:24 5 7 mph 1007.7mb 50f 44f
4:18 6
mph
1007.9mb 50f 44f
4:12 5 6 mph 1007.9mb 50f 44f
4:06 6 7 mph 1007.9mb 50f 44f
4:00 5 6 mph 1008.1mb 50f 44f
3:54 3 5 mph 1008.1mb 50f 43f
3:48 3 5 mph 1008.1mb 50f 44f
3:36 3
mph
1008.3mb 50f 44f
3:30 2 3 mph 1008.6mb 50f 44f
3:24 2 3 mph 1008.8mb 50f 44f
3:18 2 3 mph 1009mb 50f 44f
3:12  -  2 mph 1009mb 50f 45f
3:06 1 2 mph 1009.3mb 50f 45f
3:00 3 5 mph 1009.4mb 50f 44f
2:54 1 6 mph 1009.2mb 50f 44f
2:48 6 7 mph 1009.2mb 50f 43f
2:36 3 5 mph 1009.3mb 50f 44f
2:30 3
mph
1009.4mb 50f 44f
2:24 2 5 mph 1009.5mb 50f 44f
2:18 5 6 mph 1009.6mb 50f 44f
2:12 5 7 mph 1009.6mb 50f 44f
2:06 5 6 mph 1009.8mb 50f 44f
2:00 6 7 mph 1009.6mb 50f 44f
1:54 3 8 mph 1009.5mb 50f 44f
1:48 6 7 mph 1009.6mb 50f 44f
1:36 3 5 mph 1009.4mb 50f 43f
1:30 5 6 mph 1009.5mb 50f 43f
1:24 2 3 mph 1009.5mb 50f 44f
1:18 2 5 mph 1009.8mb 50f 44f
1:12 6 7 mph 1009.9mb 50f 44f
1:06 5 7 mph 1009.9mb 50f 44f
1:00 7 8 mph 1009.9mb 50f 43f
12:54 5 6 mph 1009.8mb 50f 42f
12:48 3 7 mph 1009.8mb 50f 43f
12:36 5 6 mph 1010mb 50f 43f
12:30 3 5 mph 1010.1mb 50f 43f
12:24 5 8 mph 1010.3mb 50f 43f
12:18 6 7 mph 1010.4mb 50f 43f
12:12 3 6 mph 1010.5mb 50f 43f
12:06 5 6 mph 1010.4mb 50f 43f
12:00 5 6 mph 1010.5mb 50f 43f
Do 11/20 11:54 3 6 mph 1010.5mb 50f 43f
11:48 6 7 mph 1010.7mb 50f 43f
11:36 5 6 mph 1010.7mb 50f 42f
11:30 3 7 mph 1010.9mb 50f 42f
11:24 7 8 mph 1010.9mb 50f 42f
11:18 7 8 mph 1010.9mb 50f 42f
11:12 5 6 mph 1011mb 50f 42f
11:06 3 6 mph 1011mb 50f 42f
11:00 6 7 mph 1011.1mb 50f 42f
10:54 6 9 mph 1011.2mb 50f 42f
10:48 8 10 mph 1011.2mb 50f 43f
10:36 6 7 mph 1011.4mb 50f 42f
10:30 3 8 mph 1011.4mb 50f 43f
10:24 8
mph
1011.5mb 50f 43f
10:18 6 7 mph 1011.5mb 50f 43f
10:12 5 6 mph 1011.5mb 50f 43f
10:06 5 6 mph 1011.5mb 50f 43f
10:00 6
mph
1011.6mb 50f 43f
9:54 6 7 mph 1011.6mb 50f 43f
9:48 5 6 mph 1011.6mb 50f 43f
9:36 3 5 mph 1011.7mb 50f 45f
9:30 5 6 mph 1011.8mb 50f 44f
9:24 3 5 mph 1011.8mb 50f 44f
9:18 5 6 mph 1011.9mb 50f 44f
9:12 3 7 mph 1011.9mb 50f 45f
9:06 5 7 mph 1011.9mb 50f 45f
9:00 3
mph
1011.9mb 50f 45f
8:54 2 5 mph 1012mb 50f 45f
8:48 2 5 mph 1012mb 50f 46f
8:36 1 2 mph 1011.9mb 50f 45f
8:30  -  3 mph 1011.9mb 50f 46f
8:24 3
mph
1011.9mb 50f 46f
8:18 3 5 mph 1011.9mb 50f 46f
8:12 5 6 mph 1011.9mb 50f 46f
8:06 3 7 mph 1011.9mb 50f 46f
8:00 6 7 mph 1012mb 50f 46f
7:54 6 7 mph 1011.8mb 50f 46f
7:48 6 7 mph 1011.9mb 50f 46f
7:36 5 6 mph 1012mb 50f 45f
7:30 3 5 mph 1012mb 50f 46f
7:24 2 3 mph 1011.9mb 50f 46f
7:18 3 5 mph 1012mb 50f 46f
7:12 5 6 mph 1012mb 50f 46f
7:06 5 6 mph 1011.9mb 50f 46f
7:00 5
mph
1011.9mb 50f 46f
6:54 3 5 mph 1011.9mb 50f 46f
6:48 3
mph
1012mb 50f 46f
6:36 2 3 mph 1011.9mb 50f 46f
6:30 2
mph
1012mb 50f 46f
6:24 1 2 mph 1012.1mb 50f 47f
6:18 2 3 mph 1012.2mb 50f 46f
6:12 2
mph
1012.3mb 50f 47f
6:06 2
mph
1012.3mb 50f 47f
6:00 2
mph
1012.3mb 50f 47f
5:54 1 2 mph 1012.5mb 50f 47f
5:48 3
mph
1012.5mb 50f 48f
5:36  -  1 mph 1012.3mb 50f 48f
5:30  -  1 mph 1012.3mb 50f 48f
5:24  -  1 mph 1012.4mb 50f 48f
5:18 1
mph
1012.4mb 50f 48f
5:12  -  mph 1012.5mb 50f 48f
5:06  -  1 mph 1012.4mb 50f 48f
5:00  -  1 mph 1012.4mb 50f 48f
4:54  -  1 mph 1012.5mb 50f 48f
4:48  -  1 mph 1012.6mb 50f 48f
4:36  -  2 mph 1012.7mb 50f 49f
4:30 2 3 mph 1012.7mb 50f 49f
4:24 2
mph
1012.7mb 50f 49f
4:18 2
mph
1012.7mb 50f 49f
4:12 1
mph
1012.7mb 50f 49f
4:06  -  1 mph 1012.6mb 50f 49f
4:00  -  2 mph 1012.5mb 50f 49f
3:54 2
mph
1012.5mb 50f 49f
3:48  -  2 mph - - -
3:36 1 2 mph 1012.6mb 50f 49f
3:30 1 3 mph 1012.5mb 50f 49f
3:24 2 3 mph 1012.6mb 50f 49f
3:18 1 2 mph 1012.7mb 50f 49f
3:12 1 2 mph 1012.7mb 50f 49f
3:06  -  1 mph 1012.6mb 50f 49f
3:00  -  1 mph 1012.5mb 50f 49f
2:54 2
mph
1012.5mb 50f 49f
2:48 1 2 mph 1012.6mb 50f 49f
2:36 1 2 mph 1012.7mb 50f 49f
2:30 1 2 mph 1012.8mb 50f 51f
2:24 2
mph
1012.8mb 50f 52f
2:18 1 3 mph 1012.7mb 50f 53f
2:12 2 3 mph 1012.7mb 50f 52f
2:06 2 3 mph 1012.7mb 50f 52f
2:00  -  2 mph 1012.7mb 50f 51f
1:54 1 2 mph 1012.8mb 50f 50f
1:48 1
mph
1012.9mb 50f 49f
1:36  -  1 mph 1013mb 50f 50f
1:30  -  1 mph 1013.1mb 50f 50f
1:24  -  1 mph 1013mb 50f 49f
1:18  -  1 mph 1013mb 50f 49f
1:12  -  1 mph 1013.1mb 50f 49f
1:06 1 2 mph 1013.1mb 50f 48f
1:00 1 2 mph 1013.2mb 50f 48f
12:54  -  1 mph 1013.3mb 50f 48f
12:48  -  2 mph 1013.3mb 50f 48f
12:36 2
mph
1013.3mb 50f 49f
12:30 2 3 mph 1013.3mb 50f 48f
12:24 3 6 mph 1013.5mb 50f 48f
12:18 5 6 mph 1013.6mb 50f 48f
12:12 6
mph
1013.6mb 50f 48f
12:06 5 6 mph 1013.4mb 50f 48f
12:00 5
mph
1013.5mb 50f 48f
11:54 3
mph
1013.4mb 50f 48f
11:48  -  1 mph 1013.4mb 50f 48f
11:36 3 5 mph 1013.5mb 50f 48f
11:30 5
mph
1013.6mb 50f 48f
11:24 5 6 mph 1013.6mb 50f 48f
11:18 3 5 mph 1013.5mb 50f 48f
11:12 3 5 mph 1013.5mb 50f 48f
11:06 2 3 mph 1013.5mb 50f 48f
11:00 5 6 mph 1013.5mb 50f 48f
10:54 3 5 mph 1013.5mb 50f 47f
10:48 3 5 mph 1013.6mb 50f 47f
10:36 3 5 mph 1013.5mb 50f 47f
10:30 2 3 mph 1013.5mb 50f 47f
10:24 3
mph
1013.6mb 50f 46f
10:18 2 3 mph 1013.5mb 50f 46f
10:12  -  1 mph 1013.5mb 50f 46f
10:06 1 2 mph 1013.5mb 50f 47f
10:00 1 2 mph 1013.4mb 50f 47f
9:54 1 2 mph 1013.4mb 50f 47f
9:48 2 3 mph 1013.5mb 50f 46f
9:36  -  2 mph 1013.4mb 50f 46f
9:30 1 2 mph 1013.4mb 50f 46f
9:24 2
mph
1013.5mb 50f 46f
9:18 3
mph
1013.4mb 50f 45f
9:12 2 3 mph 1013.4mb 50f 45f
9:06 2 3 mph 1013.3mb 50f 44f
9:00 5 6 mph 1013.3mb 50f 43f
8:54 3
mph
1013.2mb 50f 42f
8:48 2 3 mph 1013.3mb 50f 42f
8:36 1 3 mph 1013.4mb 50f 42f
8:30 3 5 mph 1013.4mb 50f 42f
8:24 6 7 mph 1013.3mb 49f 42f
8:18 5 6 mph 1013.2mb 49f 41f
8:12 6 8 mph - - -
8:06 5 6 mph 1013.1mb 49f 41f
8:00 5 6 mph 1013mb 49f 41f
7:54 6 7 mph 1013mb 49f 41f
7:48 6 7 mph - - -
7:36 6 8 mph 1012.9mb 50f 41f
7:30 8 9 mph 1012.9mb 50f 41f
7:24 8 9 mph 1012.8mb 50f 41f
7:18 8 9 mph 1012.8mb 50f 41f
7:12 7
mph
1012.8mb 50f 41f
7:06 5 6 mph 1012.7mb 50f 40f
7:00 6 8 mph 1012.8mb 50f 41f
6:54 5 6 mph 1012.7mb 50f 41f
6:48 6 8 mph 1012.7mb 50f 42f
6:36 6 7 mph 1012.7mb 50f 42f
6:30 6 7 mph 1012.5mb 50f 41f
6:24 2 6 mph 1012.3mb 50f 41f
6:18 8 9 mph 1012.4mb 50f 41f
6:12 7 9 mph 1012.4mb 50f 41f
6:06 6 8 mph 1012.4mb 50f 41f
6:00 8 9 mph 1012.4mb 50f 41f
5:54 7 9 mph 1012.3mb 50f 41f
5:48 6 8 mph 1012.3mb 50f 41f
5:36 8 9 mph 1012.1mb 50f 41f
5:30 8 9 mph 1012.1mb 50f 41f
5:24 5 6 mph 1011.9mb 50f 41f